sensor_id;sensor_type;location;lat;lon;timestamp;temperature;humidity
43963;DHT22;29622;45.534;9.242;2022-12-07T00:02:03;7.60;60.80
43963;DHT22;29622;45.534;9.242;2022-12-07T00:07:04;7.60;60.60
43963;DHT22;29622;45.534;9.242;2022-12-07T00:12:05;7.50;60.60
43963;DHT22;29622;45.534;9.242;2022-12-07T00:17:14;7.80;61.50
43963;DHT22;29622;45.534;9.242;2022-12-07T00:22:15;7.80;60.00
43963;DHT22;29622;45.534;9.242;2022-12-07T00:27:16;7.50;60.20
43963;DHT22;29622;45.534;9.242;2022-12-07T00:32:17;7.30;60.70
43963;DHT22;29622;45.534;9.242;2022-12-07T00:37:18;7.20;61.10
43963;DHT22;29622;45.534;9.242;2022-12-07T00:42:19;7.20;60.80
43963;DHT22;29622;45.534;9.242;2022-12-07T00:47:20;7.00;61.00
43963;DHT22;29622;45.534;9.242;2022-12-07T00:52:21;6.90;61.30
43963;DHT22;29622;45.534;9.242;2022-12-07T00:57:24;6.80;61.50
43963;DHT22;29622;45.534;9.242;2022-12-07T01:02:30;6.70;61.60
43963;DHT22;29622;45.534;9.242;2022-12-07T01:07:31;6.60;62.50
43963;DHT22;29622;45.534;9.242;2022-12-07T01:12:41;6.80;62.30
43963;DHT22;29622;45.534;9.242;2022-12-07T01:17:43;6.90;62.30
43963;DHT22;29622;45.534;9.242;2022-12-07T01:22:45;7.10;61.50
43963;DHT22;29622;45.534;9.242;2022-12-07T01:27:46;7.30;61.30
43963;DHT22;29622;45.534;9.242;2022-12-07T01:32:47;7.90;61.50
43963;DHT22;29622;45.534;9.242;2022-12-07T01:37:50;8.50;60.20
43963;DHT22;29622;45.534;9.242;2022-12-07T01:42:51;8.30;59.60
43963;DHT22;29622;45.534;9.242;2022-12-07T01:47:56;7.90;59.40
43963;DHT22;29622;45.534;9.242;2022-12-07T01:53:09;7.60;59.70
43963;DHT22;29622;45.534;9.242;2022-12-07T01:58:30;7.40;59.90
43963;DHT22;29622;45.534;9.242;2022-12-07T02:09:17;7.10;60.40
43963;DHT22;29622;45.534;9.242;2022-12-07T02:14:38;7.10;60.30
43963;DHT22;29622;45.534;9.242;2022-12-07T02:30:50;6.40;60.60
43963;DHT22;29622;45.534;9.242;2022-12-07T02:36:21;6.40;61.10
43963;DHT22;29622;45.534;9.242;2022-12-07T02:41:31;6.50;61.40
43963;DHT22;29622;45.534;9.242;2022-12-07T02:46:56;6.70;61.40
43963;DHT22;29622;45.534;9.242;2022-12-07T02:57:54;6.70;61.00
43963;DHT22;29622;45.534;9.242;2022-12-07T03:14:02;6.80;60.70
43963;DHT22;29622;45.534;9.242;2022-12-07T03:19:14;6.50;60.80
43963;DHT22;29622;45.534;9.242;2022-12-07T03:24:20;6.40;61.10
43963;DHT22;29622;45.534;9.242;2022-12-07T03:29:28;6.40;61.20
43963;DHT22;29622;45.534;9.242;2022-12-07T03:34:34;6.30;61.20
43963;DHT22;29622;45.534;9.242;2022-12-07T03:39:45;6.30;61.30
43963;DHT22;29622;45.534;9.242;2022-12-07T03:44:50;6.20;61.20
43963;DHT22;29622;45.534;9.242;2022-12-07T03:50:12;6.10;61.20
43963;DHT22;29622;45.534;9.242;2022-12-07T03:55:28;6.10;61.40
43963;DHT22;29622;45.534;9.242;2022-12-07T04:00:31;6.00;61.40
43963;DHT22;29622;45.534;9.242;2022-12-07T04:05:32;6.00;61.40
43963;DHT22;29622;45.534;9.242;2022-12-07T04:10:39;6.00;61.40
43963;DHT22;29622;45.534;9.242;2022-12-07T04:15:50;6.00;61.40
43963;DHT22;29622;45.534;9.242;2022-12-07T04:20:56;5.90;61.30
43963;DHT22;29622;45.534;9.242;2022-12-07T04:26:07;5.90;61.50
43963;DHT22;29622;45.534;9.242;2022-12-07T04:31:13;5.90;61.50
43963;DHT22;29622;45.534;9.242;2022-12-07T04:36:21;5.90;61.40
43963;DHT22;29622;45.534;9.242;2022-12-07T04:42:16;5.90;61.20
43963;DHT22;29622;45.534;9.242;2022-12-07T04:47:04;5.90;61.30
43963;DHT22;29622;45.534;9.242;2022-12-07T04:52:20;5.80;61.40
43963;DHT22;29622;45.534;9.242;2022-12-07T04:57:41;5.70;61.50
43963;DHT22;29622;45.534;9.242;2022-12-07T05:03:23;5.90;61.90
43963;DHT22;29622;45.534;9.242;2022-12-07T05:08:44;6.10;60.80
43963;DHT22;29622;45.534;9.242;2022-12-07T05:13:48;6.10;61.40
43963;DHT22;29622;45.534;9.242;2022-12-07T05:19:11;6.40;61.00
43963;DHT22;29622;45.534;9.242;2022-12-07T05:24:25;6.40;61.10
43963;DHT22;29622;45.534;9.242;2022-12-07T05:29:34;6.30;60.60
43963;DHT22;29622;45.534;9.242;2022-12-07T05:34:35;6.20;61.50
43963;DHT22;29622;45.534;9.242;2022-12-07T05:39:39;6.50;60.90
43963;DHT22;29622;45.534;9.242;2022-12-07T05:50:35;6.30;60.90
43963;DHT22;29622;45.534;9.242;2022-12-07T05:55:35;6.40;60.60
43963;DHT22;29622;45.534;9.242;2022-12-07T06:00:40;6.30;60.40
43963;DHT22;29622;45.534;9.242;2022-12-07T06:05:44;6.10;60.80
43963;DHT22;29622;45.534;9.242;2022-12-07T06:16:59;5.90;61.00
43963;DHT22;29622;45.534;9.242;2022-12-07T06:22:03;6.00;61.50
43963;DHT22;29622;45.534;9.242;2022-12-07T06:27:10;6.20;61.40
43963;DHT22;29622;45.534;9.242;2022-12-07T06:32:21;6.50;60.60
43963;DHT22;29622;45.534;9.242;2022-12-07T06:37:22;6.40;60.10
43963;DHT22;29622;45.534;9.242;2022-12-07T06:42:34;6.10;60.20
43963;DHT22;29622;45.534;9.242;2022-12-07T06:53:28;7.60;62.50
43963;DHT22;29622;45.534;9.242;2022-12-07T06:58:40;8.60;60.20
43963;DHT22;29622;45.534;9.242;2022-12-07T07:03:54;9.00;58.80
43963;DHT22;29622;45.534;9.242;2022-12-07T07:08:55;8.00;58.70
43963;DHT22;29622;45.534;9.242;2022-12-07T07:14:01;6.90;59.40
43963;DHT22;29622;45.534;9.242;2022-12-07T07:19:04;6.20;60.20
43963;DHT22;29622;45.534;9.242;2022-12-07T07:24:05;5.70;60.90
43963;DHT22;29622;45.534;9.242;2022-12-07T07:29:07;5.40;61.50
43963;DHT22;29622;45.534;9.242;2022-12-07T07:34:08;5.10;61.90
43963;DHT22;29622;45.534;9.242;2022-12-07T07:39:10;5.00;62.00
43963;DHT22;29622;45.534;9.242;2022-12-07T07:44:22;4.90;62.10
43963;DHT22;29622;45.534;9.242;2022-12-07T07:49:31;4.80;62.20
43963;DHT22;29622;45.534;9.242;2022-12-07T07:54:40;5.00;62.50
43963;DHT22;29622;45.534;9.242;2022-12-07T07:59:46;5.10;61.90
43963;DHT22;29622;45.534;9.242;2022-12-07T08:04:47;5.10;61.90
43963;DHT22;29622;45.534;9.242;2022-12-07T08:15:16;5.60;61.90
43963;DHT22;29622;45.534;9.242;2022-12-07T08:20:26;5.80;61.30
43963;DHT22;29622;45.534;9.242;2022-12-07T08:25:40;5.70;61.20
43963;DHT22;29622;45.534;9.242;2022-12-07T08:30:41;6.20;62.50
43963;DHT22;29622;45.534;9.242;2022-12-07T08:35:41;6.90;61.60
43963;DHT22;29622;45.534;9.242;2022-12-07T08:40:42;7.50;61.30
43963;DHT22;29622;45.534;9.242;2022-12-07T08:45:43;7.90;60.50
43963;DHT22;29622;45.534;9.242;2022-12-07T08:50:44;8.10;59.90
43963;DHT22;29622;45.534;9.242;2022-12-07T08:55:46;8.00;59.40
43963;DHT22;29622;45.534;9.242;2022-12-07T09:00:47;7.80;59.60
43963;DHT22;29622;45.534;9.242;2022-12-07T09:05:49;7.90;60.10
43963;DHT22;29622;45.534;9.242;2022-12-07T09:10:50;8.00;59.30
43963;DHT22;29622;45.534;9.242;2022-12-07T09:15:52;7.90;59.30
43963;DHT22;29622;45.534;9.242;2022-12-07T09:20:52;7.70;59.40
43963;DHT22;29622;45.534;9.242;2022-12-07T09:25:54;7.60;59.60
43963;DHT22;29622;45.534;9.242;2022-12-07T09:31:23;7.60;60.00
43963;DHT22;29622;45.534;9.242;2022-12-07T09:36:26;8.10;60.10
43963;DHT22;29622;45.534;9.242;2022-12-07T09:41:30;8.30;59.40
43963;DHT22;29622;45.534;9.242;2022-12-07T09:46:39;8.90;59.90
43963;DHT22;29622;45.534;9.242;2022-12-07T09:51:41;9.20;59.20
43963;DHT22;29622;45.534;9.242;2022-12-07T09:56:43;9.90;59.30
43963;DHT22;29622;45.534;9.242;2022-12-07T10:08:09;10.50;58.60
43963;DHT22;29622;45.534;9.242;2022-12-07T10:13:40;11.20;58.00
43963;DHT22;29622;45.534;9.242;2022-12-07T10:18:46;11.20;57.00
43963;DHT22;29622;45.534;9.242;2022-12-07T10:29:42;10.60;57.00
43963;DHT22;29622;45.534;9.242;2022-12-07T10:34:42;10.30;56.90
43963;DHT22;29622;45.534;9.242;2022-12-07T10:40:02;10.30;57.50
43963;DHT22;29622;45.534;9.242;2022-12-07T10:51:33;11.20;58.10
43963;DHT22;29622;45.534;9.242;2022-12-07T11:25:40;14.70;54.20
43963;DHT22;29622;45.534;9.242;2022-12-07T11:49:37;15.90;52.20
43963;DHT22;29622;45.534;9.242;2022-12-07T11:54:42;15.50;51.40
43963;DHT22;29622;45.534;9.242;2022-12-07T11:59:52;14.80;52.30
43963;DHT22;29622;45.534;9.242;2022-12-07T12:05:20;14.50;53.00
43963;DHT22;29622;45.534;9.242;2022-12-07T12:10:37;14.90;52.10
43963;DHT22;29622;45.534;9.242;2022-12-07T12:15:51;14.90;51.80
43963;DHT22;29622;45.534;9.242;2022-12-07T12:21:02;14.80;51.80
43963;DHT22;29622;45.534;9.242;2022-12-07T12:26:07;14.60;51.90
43963;DHT22;29622;45.534;9.242;2022-12-07T12:31:29;14.50;51.70
43963;DHT22;29622;45.534;9.242;2022-12-07T12:47:01;12.90;52.10
43963;DHT22;29622;45.534;9.242;2022-12-07T12:57:24;13.20;52.50
43963;DHT22;29622;45.534;9.242;2022-12-07T13:02:38;13.10;53.10
43963;DHT22;29622;45.534;9.242;2022-12-07T13:08:00;13.60;52.90
43963;DHT22;29622;45.534;9.242;2022-12-07T13:13:32;13.70;52.60
43963;DHT22;29622;45.534;9.242;2022-12-07T13:18:53;13.60;52.20
43963;DHT22;29622;45.534;9.242;2022-12-07T13:23:58;13.60;52.00
43963;DHT22;29622;45.534;9.242;2022-12-07T13:39:32;13.40;51.80
43963;DHT22;29622;45.534;9.242;2022-12-07T13:44:40;13.60;52.10
43963;DHT22;29622;45.534;9.242;2022-12-07T13:49:50;14.10;52.00
43963;DHT22;29622;45.534;9.242;2022-12-07T13:55:14;14.50;51.20
43963;DHT22;29622;45.534;9.242;2022-12-07T14:00:21;13.90;50.70
43963;DHT22;29622;45.534;9.242;2022-12-07T14:05:32;13.60;51.20
43963;DHT22;29622;45.534;9.242;2022-12-07T14:10:36;13.10;51.40
43963;DHT22;29622;45.534;9.242;2022-12-07T14:15:37;12.90;51.80
43963;DHT22;29622;45.534;9.242;2022-12-07T14:20:40;12.70;52.10
43963;DHT22;29622;45.534;9.242;2022-12-07T14:26:23;12.70;52.20
43963;DHT22;29622;45.534;9.242;2022-12-07T14:31:27;13.10;52.50
43963;DHT22;29622;45.534;9.242;2022-12-07T14:36:29;13.00;51.80
43963;DHT22;29622;45.534;9.242;2022-12-07T14:41:32;12.50;52.30
43963;DHT22;29622;45.534;9.242;2022-12-07T14:47:00;12.80;53.30
43963;DHT22;29622;45.534;9.242;2022-12-07T14:52:27;13.10;52.50
43963;DHT22;29622;45.534;9.242;2022-12-07T14:58:12;12.70;51.90
43963;DHT22;29622;45.534;9.242;2022-12-07T15:03:36;11.90;52.60
43963;DHT22;29622;45.534;9.242;2022-12-07T15:09:31;11.70;53.20
43963;DHT22;29622;45.534;9.242;2022-12-07T15:15:15;12.10;53.70
43963;DHT22;29622;45.534;9.242;2022-12-07T15:20:27;12.50;53.30
43963;DHT22;29622;45.534;9.242;2022-12-07T15:26:02;12.70;53.20
43963;DHT22;29622;45.534;9.242;2022-12-07T15:31:14;12.60;52.10
43963;DHT22;29622;45.534;9.242;2022-12-07T15:36:23;11.90;52.70
43963;DHT22;29622;45.534;9.242;2022-12-07T15:41:28;11.60;53.10
43963;DHT22;29622;45.534;9.242;2022-12-07T15:46:34;11.00;53.10
43963;DHT22;29622;45.534;9.242;2022-12-07T15:51:44;10.20;53.70
43963;DHT22;29622;45.534;9.242;2022-12-07T15:56:58;9.60;54.40
43963;DHT22;29622;45.534;9.242;2022-12-07T16:01:59;9.00;54.70
43963;DHT22;29622;45.534;9.242;2022-12-07T16:07:35;8.50;55.10
43963;DHT22;29622;45.534;9.242;2022-12-07T16:18:37;7.90;56.00
43963;DHT22;29622;45.534;9.242;2022-12-07T16:23:53;7.60;56.10
43963;DHT22;29622;45.534;9.242;2022-12-07T16:28:58;7.40;56.50
43963;DHT22;29622;45.534;9.242;2022-12-07T16:34:12;7.20;56.80
43963;DHT22;29622;45.534;9.242;2022-12-07T16:39:18;7.10;57.00
43963;DHT22;29622;45.534;9.242;2022-12-07T16:44:44;7.00;57.20
43963;DHT22;29622;45.534;9.242;2022-12-07T16:49:47;6.90;57.30
43963;DHT22;29622;45.534;9.242;2022-12-07T17:01:28;6.70;57.90
43963;DHT22;29622;45.534;9.242;2022-12-07T17:08:01;6.60;58.20
43963;DHT22;29622;45.534;9.242;2022-12-07T17:13:36;6.60;58.20
43963;DHT22;29622;45.534;9.242;2022-12-07T17:19:09;6.80;58.40
43963;DHT22;29622;45.534;9.242;2022-12-07T17:24:12;6.80;58.10
43963;DHT22;29622;45.534;9.242;2022-12-07T17:29:37;6.60;58.20
43963;DHT22;29622;45.534;9.242;2022-12-07T17:35:02;6.50;58.60
43963;DHT22;29622;45.534;9.242;2022-12-07T17:40:46;6.30;58.70
43963;DHT22;29622;45.534;9.242;2022-12-07T17:46:32;6.20;59.00
43963;DHT22;29622;45.534;9.242;2022-12-07T17:51:35;6.30;59.20
43963;DHT22;29622;45.534;9.242;2022-12-07T17:56:54;6.40;59.10
43963;DHT22;29622;45.534;9.242;2022-12-07T18:01:55;6.40;59.50
43963;DHT22;29622;45.534;9.242;2022-12-07T18:07:03;6.50;59.60
43963;DHT22;29622;45.534;9.242;2022-12-07T18:12:47;7.00;59.40
43963;DHT22;29622;45.534;9.242;2022-12-07T18:17:48;6.80;59.20
43963;DHT22;29622;45.534;9.242;2022-12-07T18:23:09;7.20;60.00
43963;DHT22;29622;45.534;9.242;2022-12-07T18:28:21;8.00;59.70
43963;DHT22;29622;45.534;9.242;2022-12-07T18:33:23;8.40;59.10
43963;DHT22;29622;45.534;9.242;2022-12-07T18:38:57;8.10;58.80
43963;DHT22;29622;45.534;9.242;2022-12-07T18:50:36;7.30;59.80
43963;DHT22;29622;45.534;9.242;2022-12-07T18:55:40;7.00;59.80
43963;DHT22;29622;45.534;9.242;2022-12-07T19:00:57;6.80;60.00
43963;DHT22;29622;45.534;9.242;2022-12-07T19:18:52;7.40;62.00
43963;DHT22;29622;45.534;9.242;2022-12-07T19:24:19;7.90;59.70
43963;DHT22;29622;45.534;9.242;2022-12-07T19:29:29;7.60;59.80
43963;DHT22;29622;45.534;9.242;2022-12-07T19:35:05;7.80;61.10
43963;DHT22;29622;45.534;9.242;2022-12-07T19:40:14;9.00;60.10
43963;DHT22;29622;45.534;9.242;2022-12-07T19:45:18;9.00;58.60
43963;DHT22;29622;45.534;9.242;2022-12-07T19:50:19;8.10;58.90
43963;DHT22;29622;45.534;9.242;2022-12-07T19:55:22;7.30;59.90
43963;DHT22;29622;45.534;9.242;2022-12-07T20:00:26;7.00;61.00
43963;DHT22;29622;45.534;9.242;2022-12-07T20:05:30;7.10;61.00
43963;DHT22;29622;45.534;9.242;2022-12-07T20:10:39;7.40;60.90
43963;DHT22;29622;45.534;9.242;2022-12-07T20:15:43;7.70;60.70
43963;DHT22;29622;45.534;9.242;2022-12-07T20:21:00;8.00;61.30
43963;DHT22;29622;45.534;9.242;2022-12-07T20:26:05;9.20;61.50
43963;DHT22;29622;45.534;9.242;2022-12-07T20:31:11;10.20;59.00
43963;DHT22;29622;45.534;9.242;2022-12-07T20:36:15;9.80;57.90
43963;DHT22;29622;45.534;9.242;2022-12-07T20:41:19;9.40;58.80
43963;DHT22;29622;45.534;9.242;2022-12-07T20:46:38;9.50;58.60
43963;DHT22;29622;45.534;9.242;2022-12-07T20:51:40;9.50;58.30
43963;DHT22;29622;45.534;9.242;2022-12-07T20:56:41;9.00;58.90
43963;DHT22;29622;45.534;9.242;2022-12-07T21:01:43;8.80;58.80
43963;DHT22;29622;45.534;9.242;2022-12-07T21:06:44;8.60;58.80
43963;DHT22;29622;45.534;9.242;2022-12-07T21:11:46;7.90;59.00
43963;DHT22;29622;45.534;9.242;2022-12-07T21:16:47;7.30;59.60
43963;DHT22;29622;45.534;9.242;2022-12-07T21:21:47;6.90;60.10
43963;DHT22;29622;45.534;9.242;2022-12-07T21:26:48;6.70;60.60
43963;DHT22;29622;45.534;9.242;2022-12-07T21:31:49;7.20;61.90
43963;DHT22;29622;45.534;9.242;2022-12-07T21:36:49;8.00;60.30
43963;DHT22;29622;45.534;9.242;2022-12-07T21:41:50;7.60;59.70
43963;DHT22;29622;45.534;9.242;2022-12-07T21:46:51;7.30;60.50
43963;DHT22;29622;45.534;9.242;2022-12-07T21:51:52;7.20;60.40
43963;DHT22;29622;45.534;9.242;2022-12-07T21:56:52;7.10;61.20
43963;DHT22;29622;45.534;9.242;2022-12-07T22:01:53;7.30;61.00
43963;DHT22;29622;45.534;9.242;2022-12-07T22:06:54;7.40;61.40
43963;DHT22;29622;45.534;9.242;2022-12-07T22:11:56;7.90;60.80
43963;DHT22;29622;45.534;9.242;2022-12-07T22:16:57;8.10;60.70
43963;DHT22;29622;45.534;9.242;2022-12-07T22:21:58;8.50;61.30
43963;DHT22;29622;45.534;9.242;2022-12-07T22:26:58;9.20;59.70
43963;DHT22;29622;45.534;9.242;2022-12-07T22:32:00;8.80;59.10
43963;DHT22;29622;45.534;9.242;2022-12-07T22:37:01;8.30;59.90
43963;DHT22;29622;45.534;9.242;2022-12-07T22:42:01;8.90;60.80
43963;DHT22;29622;45.534;9.242;2022-12-07T22:47:02;9.70;60.10
43963;DHT22;29622;45.534;9.242;2022-12-07T22:52:03;9.70;58.90
43963;DHT22;29622;45.534;9.242;2022-12-07T22:57:03;9.60;59.10
43963;DHT22;29622;45.534;9.242;2022-12-07T23:02:05;10.10;59.30
43963;DHT22;29622;45.534;9.242;2022-12-07T23:07:06;10.60;58.90
43963;DHT22;29622;45.534;9.242;2022-12-07T23:12:06;11.10;58.70
43963;DHT22;29622;45.534;9.242;2022-12-07T23:17:25;11.10;58.10
43963;DHT22;29622;45.534;9.242;2022-12-07T23:22:26;10.80;57.70
43963;DHT22;29622;45.534;9.242;2022-12-07T23:27:27;10.50;57.40
43963;DHT22;29622;45.534;9.242;2022-12-07T23:32:27;9.40;58.00
43963;DHT22;29622;45.534;9.242;2022-12-07T23:37:28;9.20;59.10
43963;DHT22;29622;45.534;9.242;2022-12-07T23:42:28;9.60;58.90
43963;DHT22;29622;45.534;9.242;2022-12-07T23:47:29;9.50;58.30
43963;DHT22;29622;45.534;9.242;2022-12-07T23:52:30;9.00;58.50
43963;DHT22;29622;45.534;9.242;2022-12-07T23:57:31;8.90;59.30
